Time;durP1;ratioP1;P1;durP2;ratioP2;P2;SDS_P1;SDS_P2;PMS_P1;PMS_P2;Temp;Humidity;BMP_temperature;BMP_pressure;BME280_temperature;BME280_humidity;BME280_pressure;Samples;Min_cycle;Max_cycle;Signal;HPM_P1;HPM_P2
2020/12/03 00:01:43;;;;;;;58.63;31.20;;;7.00;87.70;;;;;;5114668;27;20055;-80
2020/12/03 00:04:10;;;;;;;61.13;32.60;;;7.00;87.80;;;;;;5113637;27;20449;-80
2020/12/03 00:06:41;;;;;;;60.83;30.63;;;7.00;87.30;;;;;;5114871;27;20028;-80
2020/12/03 00:09:16;;;;;;;64.23;32.13;;;6.90;87.20;;;;;;5132232;27;20023;-79
2020/12/03 00:11:47;;;;;;;61.33;31.33;;;6.80;87.50;;;;;;5114124;27;20126;-80
2020/12/03 00:14:12;;;;;;;65.77;33.27;;;6.80;87.70;;;;;;5113726;27;20019;-80
2020/12/03 00:16:39;;;;;;;62.10;33.50;;;6.90;87.80;;;;;;5097400;27;20037;-79
2020/12/03 00:19:07;;;;;;;63.23;33.00;;;7.00;87.90;;;;;;5097381;27;20027;-79
2020/12/03 00:21:39;;;;;;;61.50;32.57;;;7.10;87.90;;;;;;5114538;27;20023;-80
2020/12/03 00:24:07;;;;;;;60.67;31.98;;;7.10;87.90;;;;;;5132192;27;20102;-78
2020/12/03 00:26:33;;;;;;;60.43;30.60;;;7.10;87.80;;;;;;5132462;27;20102;-80
2020/12/03 00:28:59;;;;;;;62.60;33.03;;;7.10;87.50;;;;;;5133022;27;20130;-79
2020/12/03 00:31:26;;;;;;;60.07;33.07;;;7.10;87.70;;;;;;5135100;27;20035;-80
2020/12/03 00:33:52;;;;;;;66.30;33.33;;;7.10;87.60;;;;;;5121765;27;20054;-81
2020/12/03 00:36:18;;;;;;;62.80;33.27;;;7.10;87.60;;;;;;5116882;27;20028;-81
2020/12/03 00:38:46;;;;;;;64.90;32.13;;;7.10;87.60;;;;;;5115041;27;20019;-78
2020/12/03 00:41:12;;;;;;;62.93;32.90;;;7.20;87.60;;;;;;5096394;27;20031;-79
2020/12/03 00:43:38;;;;;;;63.67;31.90;;;7.20;87.60;;;;;;5133168;27;20023;-79
2020/12/03 00:46:04;;;;;;;62.73;33.00;;;7.20;87.30;;;;;;5115686;27;20080;-79
2020/12/03 00:48:29;;;;;;;60.77;31.40;;;7.20;87.50;;;;;;5114077;28;20453;-81
2020/12/03 00:50:55;;;;;;;56.20;30.90;;;7.20;87.60;;;;;;5097649;27;20130;-82
2020/12/03 00:53:21;;;;;;;60.13;30.87;;;7.20;87.40;;;;;;5092999;28;20034;-81
2020/12/03 00:55:47;;;;;;;61.67;31.23;;;7.20;87.50;;;;;;5077991;28;20042;-81
2020/12/03 00:58:13;;;;;;;61.73;32.27;;;7.20;87.40;;;;;;5113193;27;20030;-82
2020/12/03 01:00:38;;;;;;;58.17;31.63;;;7.10;87.40;;;;;;5119513;27;20068;-81
2020/12/03 01:03:05;;;;;;;60.50;32.37;;;7.10;87.40;;;;;;5120340;27;20035;-81
2020/12/03 01:05:31;;;;;;;60.17;30.93;;;7.10;87.30;;;;;;5134013;27;20031;-81
2020/12/03 01:07:56;;;;;;;59.67;31.67;;;7.20;87.60;;;;;;5099696;28;20446;-80
2020/12/03 01:10:26;;;;;;;58.63;31.50;;;7.20;87.30;;;;;;5106812;28;20028;-82
2020/12/03 01:12:52;;;;;;;57.47;31.10;;;7.20;87.40;;;;;;5128689;28;20035;-81
2020/12/03 01:15:18;;;;;;;59.93;31.13;;;7.30;87.50;;;;;;5131029;28;20091;-79
2020/12/03 01:17:44;;;;;;;63.50;32.33;;;7.30;87.40;;;;;;5115902;28;20031;-80
2020/12/03 01:20:13;;;;;;;66.53;31.60;;;7.30;86.80;;;;;;5129890;28;20035;-79
2020/12/03 01:22:39;;;;;;;63.37;32.10;;;7.20;86.90;;;;;;5146720;28;20023;-81
2020/12/03 01:25:09;;;;;;;61.00;31.63;;;7.20;86.90;;;;;;5137811;28;20072;-81
2020/12/03 01:27:35;;;;;;;59.17;30.87;;;7.10;86.80;;;;;;5133876;28;20031;-80
2020/12/03 01:30:04;;;;;;;59.30;30.27;;;7.10;87.00;;;;;;5102796;28;20028;-81
2020/12/03 01:32:29;;;;;;;55.30;28.87;;;7.10;87.20;;;;;;5102335;28;20114;-81
2020/12/03 01:34:55;;;;;;;56.93;30.30;;;7.10;87.20;;;;;;5088292;28;20436;-82
2020/12/03 01:37:20;;;;;;;53.60;27.73;;;7.20;87.20;;;;;;5115993;28;20046;-82
2020/12/03 01:39:46;;;;;;;63.23;30.13;;;7.20;87.20;;;;;;5135895;28;20083;-82
2020/12/03 01:42:13;;;;;;;59.63;29.17;;;7.20;87.10;;;;;;5155841;27;20082;-80
2020/12/03 01:44:46;;;;;;;63.63;31.67;;;7.20;87.00;;;;;;5138522;28;20023;-83
2020/12/03 01:47:34;;;;;;;57.83;29.90;;;7.20;87.20;;;;;;5134425;28;20030;-79
2020/12/03 01:50:02;;;;;;;53.43;27.40;;;7.10;86.60;;;;;;5131945;28;20439;-82
2020/12/03 01:52:28;;;;;;;53.87;27.97;;;7.10;86.80;;;;;;5112545;28;20049;-82
2020/12/03 01:54:54;;;;;;;57.57;29.47;;;7.10;86.90;;;;;;5096434;28;20121;-83
2020/12/03 01:57:53;;;;;;;54.10;28.57;;;7.20;87.10;;;;;;5085327;28;20024;-80
2020/12/03 02:00:20;;;;;;;53.00;28.77;;;7.20;87.00;;;;;;5111432;28;20028;-82
2020/12/03 02:02:48;;;;;;;57.50;28.00;;;7.30;87.10;;;;;;5093947;28;20028;-82
2020/12/03 02:05:14;;;;;;;54.17;27.70;;;7.30;87.20;;;;;;5111672;27;20068;-81
2020/12/03 02:07:41;;;;;;;54.10;28.13;;;7.30;87.10;;;;;;5117479;27;20035;-83
2020/12/03 02:10:08;;;;;;;57.10;28.20;;;7.30;87.10;;;;;;5117238;27;20096;-82
2020/12/03 02:12:34;;;;;;;57.30;29.20;;;7.40;87.10;;;;;;5116232;27;20035;-83
2020/12/03 02:15:00;;;;;;;57.40;28.80;;;7.30;86.70;;;;;;5116768;27;20107;-82
2020/12/03 02:17:26;;;;;;;64.20;29.87;;;7.30;86.80;;;;;;5099092;27;20412;-83
2020/12/03 02:20:11;;;;;;;53.77;28.77;;;7.30;86.70;;;;;;5116283;27;20034;-82
2020/12/03 02:22:37;;;;;;;55.40;28.23;;;7.30;86.90;;;;;;5116264;27;20123;-83
2020/12/03 02:25:04;;;;;;;66.47;32.83;;;7.30;86.80;;;;;;5099545;27;20778;-83
2020/12/03 02:27:29;;;;;;;58.60;29.30;;;7.20;86.80;;;;;;5115671;27;20023;-82
2020/12/03 02:29:55;;;;;;;57.27;28.40;;;7.20;86.80;;;;;;5116195;27;20035;-83
2020/12/03 02:32:21;;;;;;;54.63;28.77;;;7.20;86.90;;;;;;5082193;27;20555;-83
2020/12/03 02:34:47;;;;;;;55.40;28.77;;;7.20;86.90;;;;;;5115983;27;20050;-83
2020/12/03 02:37:13;;;;;;;55.60;28.67;;;7.20;86.80;;;;;;5134548;27;20023;-80
2020/12/03 02:39:40;;;;;;;59.47;30.23;;;7.20;86.90;;;;;;5134824;27;20031;-83
2020/12/03 02:42:11;;;;;;;60.10;29.37;;;7.20;87.00;;;;;;5099893;27;20539;-82
2020/12/03 02:44:42;;;;;;;54.07;28.77;;;7.20;87.00;;;;;;5115476;27;20047;-82
2020/12/03 02:47:10;;;;;;;57.50;29.37;;;7.20;87.00;;;;;;5116317;27;20027;-82
2020/12/03 02:49:40;;;;;;;59.20;28.23;;;7.20;86.90;;;;;;5115162;27;20031;-81
2020/12/03 02:52:10;;;;;;;57.53;28.27;;;7.10;86.70;;;;;;5116230;27;20047;-81
2020/12/03 02:54:36;;;;;;;59.97;28.40;;;7.00;86.90;;;;;;5099467;27;20949;-81
2020/12/03 02:57:02;;;;;;;60.13;29.13;;;7.00;87.10;;;;;;5099407;27;20020;-81
2020/12/03 02:59:27;;;;;;;59.80;30.07;;;6.90;87.00;;;;;;5114901;27;20034;-82
2020/12/03 03:01:53;;;;;;;57.87;28.73;;;6.90;87.00;;;;;;5098981;27;20031;-82
2020/12/03 03:04:19;;;;;;;66.57;30.07;;;6.80;87.00;;;;;;5114927;27;20059;-81
2020/12/03 03:06:44;;;;;;;56.27;28.20;;;6.90;87.00;;;;;;5095016;28;20118;-81
2020/12/03 03:09:10;;;;;;;58.87;29.07;;;6.80;87.00;;;;;;5098998;27;20039;-80
2020/12/03 03:11:36;;;;;;;56.03;28.73;;;6.80;87.10;;;;;;5098466;27;20038;-82
2020/12/03 03:14:03;;;;;;;63.10;29.33;;;6.70;87.10;;;;;;5115954;27;20023;-81
2020/12/03 03:16:30;;;;;;;56.83;28.00;;;6.60;87.20;;;;;;5132569;27;20026;-82
2020/12/03 03:18:55;;;;;;;57.77;26.80;;;6.60;87.30;;;;;;5115315;27;20035;-82
2020/12/03 03:21:22;;;;;;;51.30;26.50;;;6.70;87.50;;;;;;5115048;27;20071;-82
2020/12/03 03:23:47;;;;;;;62.87;29.83;;;6.70;87.50;;;;;;5133925;27;20027;-81
2020/12/03 03:26:14;;;;;;;56.40;27.60;;;6.70;87.60;;;;;;5115621;27;20031;-82
2020/12/03 03:28:39;;;;;;;53.33;26.63;;;6.70;87.40;;;;;;5114967;27;20120;-82
2020/12/03 03:31:05;;;;;;;53.17;26.30;;;6.70;87.60;;;;;;5115834;27;20035;-81
2020/12/03 03:33:30;;;;;;;54.43;27.27;;;6.70;87.70;;;;;;5132325;27;20045;-83
2020/12/03 03:35:56;;;;;;;54.10;26.63;;;6.70;87.60;;;;;;5115591;27;20024;-81
2020/12/03 03:38:22;;;;;;;51.47;25.43;;;6.70;87.60;;;;;;5097515;27;20539;-81
2020/12/03 03:40:47;;;;;;;57.00;26.17;;;6.70;87.70;;;;;;5115562;27;20023;-81
2020/12/03 03:43:13;;;;;;;54.50;26.03;;;6.70;87.60;;;;;;5082760;28;20164;-81
2020/12/03 03:45:38;;;;;;;51.97;25.17;;;6.80;87.30;;;;;;5112091;28;20064;-82
2020/12/03 03:48:04;;;;;;;55.30;25.50;;;6.70;87.30;;;;;;5113385;28;20028;-82
2020/12/03 03:50:30;;;;;;;50.73;24.67;;;6.70;87.20;;;;;;5112912;27;20092;-82
2020/12/03 03:52:55;;;;;;;50.27;23.53;;;6.70;87.20;;;;;;5111664;28;20060;-82
2020/12/03 03:55:21;;;;;;;48.57;22.63;;;6.80;87.30;;;;;;5094258;28;20082;-82
2020/12/03 03:57:47;;;;;;;47.57;24.47;;;6.80;87.20;;;;;;5112954;28;20028;-81
2020/12/03 04:00:16;;;;;;;50.17;23.47;;;6.80;87.20;;;;;;5111900;28;20038;-81
2020/12/03 04:02:43;;;;;;;50.73;23.43;;;6.80;87.20;;;;;;5112041;28;20501;-82
2020/12/03 04:05:09;;;;;;;48.40;24.03;;;6.90;87.30;;;;;;5111119;28;20028;-82
2020/12/03 04:07:35;;;;;;;48.67;24.67;;;6.90;87.10;;;;;;5090254;28;20790;-82
2020/12/03 04:10:01;;;;;;;52.30;23.77;;;6.90;87.10;;;;;;5106044;28;20024;-80
2020/12/03 04:12:26;;;;;;;48.93;23.00;;;6.90;87.00;;;;;;5110780;28;20039;-82
2020/12/03 04:14:52;;;;;;;52.33;24.23;;;6.90;86.90;;;;;;5111598;28;20039;-81
2020/12/03 04:17:17;;;;;;;49.77;23.70;;;6.90;86.90;;;;;;5090675;28;20039;-78
2020/12/03 04:19:43;;;;;;;47.83;22.00;;;6.90;86.70;;;;;;5084973;28;20043;-81
2020/12/03 04:22:09;;;;;;;44.50;21.17;;;6.90;86.80;;;;;;5112792;28;20349;-82
2020/12/03 04:24:34;;;;;;;48.97;22.53;;;6.80;87.00;;;;;;5094211;28;20475;-82
2020/12/03 04:27:00;;;;;;;44.67;21.93;;;6.90;86.90;;;;;;5094977;28;20461;-81
2020/12/03 04:29:26;;;;;;;44.83;20.30;;;6.90;87.00;;;;;;5076363;28;20099;-80
2020/12/03 04:31:51;;;;;;;44.77;21.87;;;6.90;87.00;;;;;;5094661;28;20068;-81
2020/12/03 04:34:17;;;;;;;41.33;19.93;;;6.90;87.10;;;;;;5102070;28;20114;-82
2020/12/03 04:36:42;;;;;;;41.87;21.00;;;6.90;87.20;;;;;;5110946;28;20055;-82
2020/12/03 04:39:08;;;;;;;41.97;20.87;;;6.90;87.20;;;;;;5112277;28;20023;-82
2020/12/03 04:41:34;;;;;;;44.87;19.90;;;7.00;87.20;;;;;;5113826;28;20034;-82
2020/12/03 04:44:21;;;;;;;43.20;19.83;;;6.90;87.00;;;;;;5112049;28;20029;-81
2020/12/03 04:47:01;;;;;;;42.73;20.20;;;7.00;87.10;;;;;;5111925;28;20498;-82
2020/12/03 04:49:41;;;;;;;39.87;20.47;;;6.90;87.00;;;;;;5110178;28;20024;-82
2020/12/03 04:52:23;;;;;;;40.73;19.83;;;6.90;87.00;;;;;;5099398;28;20105;-81
2020/12/03 04:55:13;;;;;;;47.43;22.20;;;6.80;86.90;;;;;;5091916;28;20022;-81
2020/12/03 04:57:42;;;;;;;42.27;19.87;;;6.80;86.60;;;;;;5089286;28;20395;-81
2020/12/03 05:00:32;;;;;;;42.97;20.93;;;6.70;86.70;;;;;;5089658;28;20118;-82
2020/12/03 05:03:35;;;;;;;35.80;19.23;;;6.70;86.90;;;;;;5089487;28;20032;-83
2020/12/03 05:06:18;;;;;;;33.93;17.70;;;6.70;86.80;;;;;;5090872;28;20050;-81
2020/12/03 05:09:07;;;;;;;35.10;17.98;;;6.80;86.90;;;;;;5089750;28;20092;-81
2020/12/03 05:11:43;;;;;;;38.80;17.97;;;6.80;86.70;;;;;;5089829;28;20106;-81
2020/12/03 05:14:15;;;;;;;35.07;17.17;;;6.70;86.40;;;;;;5089943;28;20038;-81
2020/12/03 05:16:58;;;;;;;33.15;16.38;;;6.70;86.30;;;;;;5090057;28;20035;-82
2020/12/03 05:19:41;;;;;;;36.28;17.60;;;6.70;86.40;;;;;;5094617;28;20040;-78
2020/12/03 05:22:26;;;;;;;32.63;16.80;;;6.70;86.00;;;;;;5093965;28;20036;-83
2020/12/03 05:24:51;;;;;;;35.23;18.87;;;6.60;86.20;;;;;;5092249;28;20032;-80
2020/12/03 05:27:21;;;;;;;33.77;17.73;;;6.60;86.30;;;;;;5092215;28;20030;-81
2020/12/03 05:29:47;;;;;;;35.33;18.07;;;6.60;86.40;;;;;;5093720;28;20423;-82
2020/12/03 05:32:13;;;;;;;29.77;16.47;;;6.50;86.50;;;;;;5092807;28;20028;-82
2020/12/03 05:34:38;;;;;;;34.63;17.30;;;6.50;86.70;;;;;;5055581;28;20040;-82
2020/12/03 05:37:11;;;;;;;32.73;16.53;;;6.50;86.80;;;;;;5072640;28;20523;-82
2020/12/03 05:39:40;;;;;;;;;;;6.50;86.80;;;;;;5089788;28;20463;-81
2020/12/03 05:42:09;;;;;;;38.93;17.30;;;6.40;86.50;;;;;;5098053;28;19933;-83
2020/12/03 05:44:47;;;;;;;34.70;16.70;;;6.30;86.50;;;;;;5098770;28;20024;-82
2020/12/03 05:47:21;;;;;;;33.93;16.63;;;6.30;86.60;;;;;;5098893;28;20528;-81
2020/12/03 05:49:49;;;;;;;29.37;15.57;;;6.30;86.60;;;;;;5095665;28;20059;-81
2020/12/03 05:52:21;;;;;;;24.80;14.93;;;6.30;87.00;;;;;;5107214;28;20057;-82
2020/12/03 05:55:08;;;;;;;26.85;14.82;;;6.30;86.90;;;;;;5114025;28;20811;-80
2020/12/03 05:57:33;;;;;;;29.37;15.20;;;6.30;86.80;;;;;;5113146;28;20081;-82
2020/12/03 06:00:14;;;;;;;28.50;15.07;;;6.40;86.90;;;;;;5115316;28;20027;-81
2020/12/03 06:03:04;;;;;;;27.97;14.97;;;6.40;86.80;;;;;;5113919;28;20276;-79
2020/12/03 06:05:42;;;;;;;26.47;14.13;;;6.50;86.80;;;;;;5116723;28;20015;-81
2020/12/03 06:08:22;;;;;;;22.23;13.33;;;6.50;86.60;;;;;;5114874;28;20461;-83
2020/12/03 06:11:17;;;;;;;22.90;12.60;;;6.50;86.60;;;;;;5112433;28;20028;-81
2020/12/03 06:13:53;;;;;;;23.97;13.67;;;6.60;86.50;;;;;;5112596;28;20053;-80
2020/12/03 06:16:34;;;;;;;25.83;13.53;;;6.60;86.20;;;;;;5118565;28;20027;-83
2020/12/03 06:19:21;;;;;;;22.57;13.07;;;6.60;86.10;;;;;;5113879;28;20020;-81
2020/12/03 06:21:50;;;;;;;26.43;13.07;;;6.60;85.90;;;;;;5112598;28;20024;-80
2020/12/03 06:24:30;;;;;;;25.70;12.27;;;6.70;85.40;;;;;;5114021;28;20032;-82
2020/12/03 06:27:05;;;;;;;22.07;11.97;;;6.60;85.00;;;;;;5115823;28;20124;-81
2020/12/03 06:29:53;;;;;;;21.63;12.37;;;6.50;85.00;;;;;;5116393;28;20467;-82
2020/12/03 06:32:52;;;;;;;23.13;12.73;;;6.50;84.60;;;;;;5113454;28;20406;-79
2020/12/03 06:35:39;;;;;;;22.47;13.07;;;6.50;84.60;;;;;;5101443;28;20028;-80
2020/12/03 06:38:08;;;;;;;25.43;12.73;;;6.50;84.80;;;;;;5112634;28;20020;-80
2020/12/03 06:40:38;;;;;;;20.90;12.00;;;6.50;84.70;;;;;;5110967;28;20028;-80
2020/12/03 06:43:12;;;;;;;24.73;12.63;;;6.50;84.40;;;;;;5113787;28;20043;-80
2020/12/03 06:46:21;;;;;;;23.67;13.10;;;6.50;84.40;;;;;;5112854;28;20039;-80
2020/12/03 06:49:05;;;;;;;24.43;12.87;;;6.50;84.50;;;;;;5105850;28;20032;-79
2020/12/03 06:52:05;;;;;;;22.67;12.93;;;6.40;84.50;;;;;;5110527;28;20090;-77
2020/12/03 06:55:08;;;;;;;22.87;12.83;;;6.40;84.70;;;;;;5086116;28;20033;-80
2020/12/03 06:57:56;;;;;;;21.83;11.97;;;6.40;84.90;;;;;;5102382;28;20039;-80
2020/12/03 07:00:43;;;;;;;21.33;12.23;;;6.40;85.00;;;;;;5111947;28;20020;-80
2020/12/03 07:03:28;;;;;;;24.47;13.70;;;6.30;85.00;;;;;;5112194;28;20024;-80
2020/12/03 07:06:14;;;;;;;19.97;12.50;;;6.30;84.90;;;;;;5121682;28;20098;-80
2020/12/03 07:09:17;;;;;;;22.13;12.17;;;6.30;85.00;;;;;;5127453;28;20463;-80
2020/12/03 07:12:09;;;;;;;22.40;12.47;;;6.30;85.10;;;;;;5130090;28;20027;-80
2020/12/03 07:14:49;;;;;;;17.90;12.10;;;6.20;85.10;;;;;;5115969;28;20463;-80
2020/12/03 07:17:48;;;;;;;22.60;11.23;;;6.20;85.00;;;;;;5128247;28;20027;-80
2020/12/03 07:21:02;;;;;;;21.77;12.40;;;6.30;85.60;;;;;;5113488;28;20092;-81
2020/12/03 07:23:47;;;;;;;23.20;12.88;;;6.30;85.20;;;;;;5108075;28;20404;-80
2020/12/03 07:26:47;;;;;;;21.93;12.50;;;6.30;84.70;;;;;;5097535;28;20028;-81
2020/12/03 07:29:55;;;;;;;21.23;12.27;;;6.30;84.70;;;;;;5111556;28;20736;-81
2020/12/03 07:32:51;;;;;;;21.30;12.77;;;6.30;84.90;;;;;;5048064;28;20041;-80
2020/12/03 07:35:29;;;;;;;22.73;13.63;;;6.30;84.50;;;;;;5019167;28;20185;-80
2020/12/03 07:38:27;;;;;;;25.47;12.03;;;6.30;84.60;;;;;;5069598;28;20036;-79
2020/12/03 07:40:54;;;;;;;24.63;13.30;;;6.20;84.70;;;;;;5089917;28;20101;-80
2020/12/03 07:43:31;;;;;;;24.33;13.30;;;6.30;84.50;;;;;;5090639;28;20536;-79
2020/12/03 07:45:58;;;;;;;19.97;12.97;;;6.20;84.20;;;;;;5108985;28;20020;-80
2020/12/03 07:48:50;;;;;;;21.53;13.30;;;6.20;84.30;;;;;;5090284;28;20472;-80
2020/12/03 07:51:17;;;;;;;20.93;12.40;;;6.30;84.40;;;;;;5106585;28;20096;-80
2020/12/03 07:53:44;;;;;;;21.47;13.20;;;6.30;84.40;;;;;;5106989;28;20433;-79
2020/12/03 07:56:27;;;;;;;20.47;13.20;;;6.30;84.00;;;;;;5111835;28;20076;-80
2020/12/03 07:58:54;;;;;;;21.03;11.40;;;6.30;84.20;;;;;;5121894;27;20028;-79
2020/12/03 08:01:26;;;;;;;22.70;12.07;;;6.40;84.30;;;;;;5109355;28;20036;-79
2020/12/03 08:04:14;;;;;;;20.07;12.13;;;6.40;84.00;;;;;;5109378;28;20034;-80
2020/12/03 08:06:43;;;;;;;20.53;12.07;;;6.40;84.20;;;;;;5096560;28;20125;-80
2020/12/03 08:09:16;;;;;;;20.33;13.10;;;6.30;84.00;;;;;;5104338;28;20038;-82
2020/12/03 08:11:44;;;;;;;25.60;13.90;;;6.40;84.20;;;;;;5111168;28;20103;-80
2020/12/03 08:14:37;;;;;;;20.70;12.20;;;6.40;83.80;;;;;;5112985;28;20114;-80
2020/12/03 08:17:25;;;;;;;23.75;14.70;;;6.30;83.70;;;;;;5113991;28;20083;-81
2020/12/03 08:20:03;;;;;;;24.37;13.57;;;6.30;83.80;;;;;;5112596;28;20047;-80
2020/12/03 08:22:42;;;;;;;22.97;13.83;;;6.30;84.10;;;;;;5112628;28;20423;-80
2020/12/03 08:25:29;;;;;;;26.50;13.37;;;6.30;84.40;;;;;;5114177;27;20352;-80
2020/12/03 08:28:02;;;;;;;22.43;13.67;;;6.30;84.60;;;;;;5109766;28;20483;-81
2020/12/03 08:30:47;;;;;;;26.77;14.82;;;6.30;84.80;;;;;;5112559;28;20016;-82
2020/12/03 08:33:15;;;;;;;25.40;14.93;;;6.30;84.80;;;;;;5109920;28;20104;-80
2020/12/03 08:35:51;;;;;;;23.70;15.00;;;6.20;84.70;;;;;;5108777;28;20158;-80
2020/12/03 08:38:27;;;;;;;26.07;15.60;;;6.30;84.90;;;;;;5103248;27;20031;-79
2020/12/03 08:40:55;;;;;;;24.33;16.07;;;6.30;85.20;;;;;;5103082;28;20122;-79
2020/12/03 08:43:22;;;;;;;23.50;15.13;;;6.30;85.60;;;;;;5090671;28;20131;-80
2020/12/03 08:45:54;;;;;;;28.57;14.47;;;6.30;84.90;;;;;;5107687;28;20039;-80
2020/12/03 08:48:24;;;;;;;24.23;14.63;;;6.30;85.00;;;;;;5111291;28;20114;-79
2020/12/03 08:50:55;;;;;;;21.90;13.87;;;6.30;84.60;;;;;;5106930;27;20047;-80
2020/12/03 08:53:21;;;;;;;23.30;14.77;;;6.30;84.80;;;;;;5107737;27;20054;-80
2020/12/03 08:55:47;;;;;;;22.90;13.87;;;6.30;84.70;;;;;;5112049;27;20034;-79
2020/12/03 08:58:16;;;;;;;23.67;14.63;;;6.30;84.70;;;;;;5091455;28;20489;-78
2020/12/03 09:00:43;;;;;;;24.33;14.80;;;6.30;84.50;;;;;;5110343;27;20028;-80
2020/12/03 09:03:13;;;;;;;23.07;14.03;;;6.30;84.50;;;;;;5092132;27;20041;-80
2020/12/03 09:05:42;;;;;;;24.23;13.47;;;6.30;84.40;;;;;;5103717;28;20084;-77
2020/12/03 09:08:09;;;;;;;20.60;13.43;;;6.30;84.20;;;;;;5123785;27;20023;-80
2020/12/03 09:10:35;;;;;;;24.40;14.00;;;6.30;84.10;;;;;;5132793;28;20098;-80
2020/12/03 09:13:00;;;;;;;20.93;13.33;;;6.30;84.30;;;;;;5115929;28;20125;-80
2020/12/03 09:15:28;;;;;;;24.13;13.87;;;6.30;84.30;;;;;;5101730;28;20443;-79
2020/12/03 09:17:59;;;;;;;24.37;15.27;;;6.30;83.80;;;;;;5112589;28;20042;-80
2020/12/03 09:20:25;;;;;;;22.60;14.07;;;6.30;84.00;;;;;;5124312;28;20042;-81
2020/12/03 09:22:50;;;;;;;20.77;12.27;;;6.40;84.40;;;;;;5139008;28;20063;-80
2020/12/03 09:25:16;;;;;;;24.13;14.43;;;6.30;83.40;;;;;;5122134;28;20024;-80
2020/12/03 09:27:43;;;;;;;20.23;12.17;;;6.30;83.70;;;;;;5102198;28;20059;-80
2020/12/03 09:30:29;;;;;;;19.80;12.83;;;6.30;83.40;;;;;;5113607;28;20020;-81
2020/12/03 09:33:03;;;;;;;23.63;12.77;;;6.30;83.60;;;;;;5130606;28;20035;-80
2020/12/03 09:35:31;;;;;;;19.87;12.10;;;6.30;83.80;;;;;;5131965;28;20459;-80
2020/12/03 09:38:02;;;;;;;23.40;12.27;;;6.30;83.70;;;;;;5130076;28;20159;-79
2020/12/03 09:40:29;;;;;;;20.40;12.30;;;6.30;83.90;;;;;;5128185;28;20068;-80
2020/12/03 09:42:56;;;;;;;17.47;11.57;;;6.40;84.10;;;;;;5112462;28;20042;-79
2020/12/03 09:45:47;;;;;;;19.37;11.67;;;6.40;83.70;;;;;;5112591;28;20079;-80
2020/12/03 09:48:16;;;;;;;24.53;14.27;;;6.40;84.10;;;;;;5113336;28;20031;-80
2020/12/03 09:50:43;;;;;;;20.53;11.40;;;6.40;83.30;;;;;;5110652;28;20459;-79
2020/12/03 09:53:18;;;;;;;18.50;10.97;;;6.40;83.00;;;;;;5094458;28;20044;-79
2020/12/03 09:55:44;;;;;;;18.53;11.40;;;6.40;83.00;;;;;;5107573;28;20042;-79
2020/12/03 09:58:10;;;;;;;19.30;11.47;;;6.40;83.00;;;;;;5094843;28;20090;-80
2020/12/03 10:00:39;;;;;;;17.30;11.37;;;6.40;83.10;;;;;;5097065;28;20023;-80
2020/12/03 10:03:17;;;;;;;16.70;11.00;;;6.50;83.00;;;;;;5092634;28;20036;-80
2020/12/03 10:06:02;;;;;;;15.43;10.40;;;6.50;82.90;;;;;;5109940;28;20022;-78
2020/12/03 10:08:55;;;;;;;18.53;10.37;;;6.50;82.90;;;;;;5095966;28;20028;-79
2020/12/03 10:11:45;;;;;;;19.63;10.77;;;6.50;82.40;;;;;;5095262;28;20043;-80
2020/12/03 10:14:44;;;;;;;17.43;10.07;;;6.50;82.40;;;;;;5108824;28;20488;-80
2020/12/03 10:17:18;;;;;;;17.43;9.90;;;6.50;82.60;;;;;;5109651;28;20370;-80
2020/12/03 10:19:45;;;;;;;18.07;10.70;;;6.50;82.70;;;;;;5109161;28;20043;-82
2020/12/03 10:22:38;;;;;;;18.80;10.43;;;6.60;82.90;;;;;;5110847;28;20059;-80
2020/12/03 10:25:22;;;;;;;15.68;8.85;;;6.60;82.80;;;;;;5088361;28;20496;-81
2020/12/03 10:28:24;;;;;;;19.17;11.20;;;6.60;82.30;;;;;;5097577;28;20068;-80
2020/12/03 10:30:54;;;;;;;15.93;10.30;;;6.70;82.60;;;;;;5111945;28;20031;-80
2020/12/03 10:33:23;;;;;;;13.13;9.53;;;6.70;82.50;;;;;;5111183;28;20038;-81
2020/12/03 10:35:51;;;;;;;16.90;9.37;;;6.80;82.30;;;;;;5112059;28;20027;-81
2020/12/03 10:38:23;;;;;;;17.17;8.00;;;6.80;82.00;;;;;;5095380;28;20123;-80
2020/12/03 10:40:56;;;;;;;14.93;8.82;;;6.80;81.20;;;;;;5110266;28;20024;-80
2020/12/03 10:43:29;;;;;;;14.82;8.63;;;6.80;81.10;;;;;;5113075;28;21972;-80
2020/12/03 10:45:58;;;;;;;14.20;7.97;;;6.80;80.90;;;;;;5113263;28;20058;-81
2020/12/03 10:48:34;;;;;;;13.87;9.77;;;6.80;81.10;;;;;;5111003;28;20028;-81
2020/12/03 10:51:08;;;;;;;11.50;7.07;;;6.80;80.70;;;;;;5112113;28;20060;-81
2020/12/03 10:53:35;;;;;;;13.73;8.47;;;6.90;80.30;;;;;;5111001;28;20132;-81
2020/12/03 10:56:06;;;;;;;13.40;7.50;;;6.90;80.20;;;;;;5111537;28;20031;-78
2020/12/03 10:58:45;;;;;;;9.90;6.80;;;6.90;80.40;;;;;;5111254;28;20034;-80
2020/12/03 11:01:21;;;;;;;12.63;7.30;;;7.10;80.10;;;;;;5112142;28;20036;-80
2020/12/03 11:03:48;;;;;;;11.60;7.33;;;7.20;79.80;;;;;;5110949;28;20740;-79
2020/12/03 11:06:15;;;;;;;12.70;7.23;;;7.20;79.50;;;;;;5111507;28;20024;-79
2020/12/03 11:08:41;;;;;;;10.40;6.60;;;7.20;79.00;;;;;;5111221;28;20031;-79
2020/12/03 11:11:08;;;;;;;10.77;6.77;;;7.20;78.60;;;;;;5110577;28;20027;-80
2020/12/03 11:13:35;;;;;;;12.23;7.23;;;7.20;78.70;;;;;;5111585;28;20035;-80
2020/12/03 11:16:04;;;;;;;11.83;6.63;;;7.20;78.80;;;;;;5108388;28;20035;-80
2020/12/03 11:18:37;;;;;;;10.77;6.40;;;7.20;79.00;;;;;;5113329;28;20023;-80
2020/12/03 11:21:13;;;;;;;11.40;6.50;;;7.20;78.60;;;;;;5110198;28;20714;-80
2020/12/03 11:24:02;;;;;;;10.70;6.97;;;7.20;78.80;;;;;;5110289;28;20028;-79
2020/12/03 11:26:31;;;;;;;12.90;6.73;;;7.20;78.40;;;;;;5094041;28;20024;-80
2020/12/03 11:29:09;;;;;;;9.73;5.07;;;7.10;78.70;;;;;;5094351;28;20060;-80
2020/12/03 11:31:35;;;;;;;10.40;5.70;;;7.20;78.40;;;;;;5102182;28;20364;-80
2020/12/03 11:34:00;;;;;;;12.57;7.20;;;7.10;78.40;;;;;;5096792;28;20068;-80
2020/12/03 11:36:32;;;;;;;10.20;5.53;;;7.20;78.80;;;;;;5108548;28;20028;-78
2020/12/03 11:38:58;;;;;;;7.83;5.00;;;7.20;78.70;;;;;;5097284;28;20028;-80
2020/12/03 11:49:23;;;;;;;9.90;5.37;;;7.30;78.10;;;;;;5105501;28;20568;-82
2020/12/03 11:51:49;;;;;;;7.93;5.37;;;7.30;77.60;;;;;;5102377;28;20055;-80
2020/12/03 11:54:15;;;;;;;6.13;4.40;;;7.30;78.00;;;;;;5090579;28;20031;-81
2020/12/03 11:56:40;;;;;;;7.50;4.70;;;7.40;77.80;;;;;;5076396;28;20060;-81
2020/12/03 11:59:14;;;;;;;8.63;4.50;;;7.40;77.50;;;;;;5075960;28;20676;-80
2020/12/03 12:01:39;;;;;;;;;;;7.40;77.60;;;;;;5110729;28;20125;-79
2020/12/03 12:04:08;;;;;;;7.53;5.07;;;7.40;77.10;;;;;;5109378;28;20265;-80
2020/12/03 12:06:45;;;;;;;7.50;3.10;;;7.40;78.00;;;;;;5093341;28;20028;-81
2020/12/03 12:09:31;;;;;;;4.33;3.00;;;7.50;77.90;;;;;;5109363;28;20053;-79
2020/12/03 12:11:57;;;;;;;5.43;3.87;;;7.50;76.80;;;;;;5095992;28;20555;-79
2020/12/03 12:14:23;;;;;;;8.30;3.90;;;7.50;77.20;;;;;;5109518;28;20056;-79
2020/12/03 12:16:49;;;;;;;6.50;4.23;;;7.50;77.10;;;;;;5108524;28;20036;-77
2020/12/03 12:19:14;;;;;;;4.77;3.37;;;7.50;77.60;;;;;;5108531;28;20028;-80
2020/12/03 12:21:40;;;;;;;5.80;4.20;;;7.50;77.00;;;;;;5093651;28;20509;-79
2020/12/03 12:24:06;;;;;;;8.07;5.53;;;7.40;77.40;;;;;;5074553;28;20027;-79
2020/12/03 12:26:31;;;;;;;6.23;3.57;;;7.40;78.20;;;;;;5110453;28;20024;-79
2020/12/03 12:28:57;;;;;;;6.13;3.97;;;7.50;78.10;;;;;;5075278;28;20032;-79
2020/12/03 12:31:23;;;;;;;5.93;3.93;;;7.50;77.90;;;;;;5108428;28;20399;-79
2020/12/03 12:33:48;;;;;;;6.10;3.60;;;7.50;78.30;;;;;;5075750;28;20031;-78
2020/12/03 12:36:14;;;;;;;6.50;3.73;;;7.50;77.60;;;;;;5110172;28;20076;-79
2020/12/03 12:38:40;;;;;;;4.40;2.77;;;7.50;78.00;;;;;;5105627;28;20030;-79
2020/12/03 12:41:06;;;;;;;5.67;2.93;;;7.50;77.70;;;;;;5085708;28;20478;-78
2020/12/03 12:43:31;;;;;;;4.90;2.43;;;7.40;77.70;;;;;;5116125;28;20031;-79
2020/12/03 12:45:57;;;;;;;4.13;2.83;;;7.40;77.60;;;;;;5102658;27;20047;-78
2020/12/03 12:48:23;;;;;;;5.60;2.80;;;7.40;77.80;;;;;;5102448;28;20501;-78
2020/12/03 12:50:48;;;;;;;4.00;2.73;;;7.40;77.70;;;;;;5109420;28;20038;-78
2020/12/03 12:53:14;;;;;;;3.67;2.47;;;7.40;77.70;;;;;;5081652;28;20381;-79
2020/12/03 12:55:40;;;;;;;4.87;3.30;;;7.40;77.60;;;;;;5111158;28;20027;-79
2020/12/03 12:58:06;;;;;;;3.73;2.43;;;7.40;77.60;;;;;;5089902;28;20031;-80
2020/12/03 13:00:31;;;;;;;3.57;2.40;;;7.50;77.40;;;;;;5093108;28;20025;-80
2020/12/03 13:02:57;;;;;;;3.27;2.20;;;7.50;77.90;;;;;;5088559;28;20395;-80
2020/12/03 13:05:22;;;;;;;3.80;2.47;;;7.50;77.80;;;;;;5108765;28;20562;-80
2020/12/03 13:07:48;;;;;;;3.13;2.23;;;7.50;78.30;;;;;;5084487;28;20031;-80
2020/12/03 13:10:14;;;;;;;3.23;2.10;;;7.40;77.60;;;;;;5088197;28;20527;-80
2020/12/03 13:12:40;;;;;;;2.93;2.13;;;7.30;78.30;;;;;;5073602;28;20024;-79
2020/12/03 13:15:06;;;;;;;2.33;1.53;;;7.30;78.80;;;;;;5090809;28;20039;-80